Time;durP1;ratioP1;P1;durP2;ratioP2;P2;SDS_P1;SDS_P2;PMS_P1;PMS_P2;Temp;Humidity;BMP_temperature;BMP_pressure;BME280_temperature;BME280_humidity;BME280_pressure;Samples;Min_cycle;Max_cycle;Signal;HPM_P1;HPM_P2
2023/10/11 00:01:09;;;;;;;2.80;2.03;;;;;;;16.66;69.55;98972.81;5111319;28;20187;-59
2023/10/11 00:03:35;;;;;;;3.75;1.80;;;;;;;16.48;70.09;98952.63;5111259;28;20720;-60
2023/10/11 00:06:04;;;;;;;8.75;1.90;;;;;;;16.44;70.53;98962.50;5110948;28;20182;-59
2023/10/11 00:08:39;;;;;;;2.75;1.40;;;;;;;16.69;70.24;98976.97;5110896;28;20167;-59
2023/10/11 00:11:07;;;;;;;4.43;1.60;;;;;;;16.59;70.48;98978.69;5111285;28;20181;-59
2023/10/11 00:13:33;;;;;;;3.53;1.75;;;;;;;16.77;70.39;98998.03;5111074;28;20187;-59
2023/10/11 00:16:07;;;;;;;6.00;1.90;;;;;;;16.51;71.18;98978.50;5111058;28;20198;-59
2023/10/11 00:18:34;;;;;;;2.53;1.83;;;;;;;16.40;71.88;98978.56;5111092;28;20223;-60
2023/10/11 00:21:02;;;;;;;7.72;1.50;;;;;;;16.54;71.79;98991.31;5110968;28;20183;-59
2023/10/11 00:23:31;;;;;;;4.88;2.00;;;;;;;16.28;72.13;98966.50;5111100;28;20179;-59
2023/10/11 00:26:00;;;;;;;4.13;1.90;;;;;;;16.27;72.57;98988.34;5111126;28;20275;-59
2023/10/11 00:28:26;;;;;;;2.38;1.50;;;;;;;16.08;73.77;98977.75;5111019;28;20182;-59
2023/10/11 00:30:54;;;;;;;6.93;2.13;;;;;;;16.25;73.33;99000.69;5110930;28;20176;-59
2023/10/11 00:33:19;;;;;;;6.22;1.80;;;;;;;15.87;73.90;98959.44;5113388;28;20182;-59
2023/10/11 00:35:49;;;;;;;3.95;1.30;;;;;;;15.94;74.39;98975.44;5114657;28;20180;-59
2023/10/11 00:38:27;;;;;;;2.80;1.92;;;;;;;16.18;73.66;98999.53;5115012;28;20620;-59
2023/10/11 00:41:07;;;;;;;3.58;1.92;;;;;;;16.09;73.90;98995.09;5079586;28;20190;-59
2023/10/11 00:43:41;;;;;;;5.57;1.60;;;;;;;16.02;71.76;98993.91;5115007;28;20527;-60
2023/10/11 00:46:09;;;;;;;5.07;1.67;;;;;;;15.90;71.18;98968.81;5114810;28;20179;-59
2023/10/11 00:48:51;;;;;;;2.63;1.67;;;;;;;16.05;70.22;98986.69;5114454;28;20621;-59
2023/10/11 00:51:29;;;;;;;3.88;1.40;;;;;;;16.25;68.87;99014.59;5114652;28;20190;-59
2023/10/11 00:53:56;;;;;;;7.05;2.03;;;;;;;16.07;68.39;99007.41;5114676;28;20179;-59
2023/10/11 00:56:26;;;;;;;5.40;1.77;;;;;;;15.89;68.64;99011.50;5110465;28;20225;-59
2023/10/11 00:58:52;;;;;;;3.22;1.90;;;;;;;15.68;68.53;98972.31;5114812;28;20186;-59
2023/10/11 01:01:20;;;;;;;4.03;1.58;;;;;;;15.76;68.42;98983.00;5114545;28;20171;-59
2023/10/11 01:03:45;;;;;;;2.47;1.63;;;;;;;15.79;68.04;98971.44;5114459;28;20172;-59
2023/10/11 01:06:12;;;;;;;3.45;1.70;;;;;;;15.92;68.03;98995.63;5114405;28;20176;-59
2023/10/11 01:08:40;;;;;;;5.75;1.80;;;;;;;15.86;67.51;98980.47;5114332;28;20665;-59
2023/10/11 01:11:13;;;;;;;4.78;1.70;;;;;;;15.99;68.35;99012.44;5114364;28;20179;-59
2023/10/11 01:13:40;;;;;;;4.22;2.03;;;;;;;15.82;67.79;98973.81;5113840;28;20622;-59
2023/10/11 01:16:07;;;;;;;5.22;1.48;;;;;;;15.86;67.14;98980.47;5114427;28;20553;-59
2023/10/11 01:18:33;;;;;;;1.70;1.38;;;;;;;15.94;67.41;99017.19;5114214;28;20172;-59
2023/10/11 01:21:02;;;;;;;2.65;1.85;;;;;;;15.95;67.88;99013.63;5114180;28;20183;-59
2023/10/11 01:23:27;;;;;;;5.20;1.73;;;;;;;15.98;68.15;99021.22;5114064;28;20171;-59
2023/10/11 01:25:55;;;;;;;4.75;1.83;;;;;;;15.92;68.37;99019.13;5113795;28;20553;-59
2023/10/11 01:28:21;;;;;;;5.80;2.30;;;;;;;16.06;67.98;99026.66;5113701;28;20554;-59
2023/10/11 01:30:47;;;;;;;5.47;1.40;;;;;;;15.91;67.64;99031.31;5050745;28;20281;-59
2023/10/11 01:33:16;;;;;;;3.72;1.98;;;;;;;15.60;68.32;98994.75;5050814;28;20304;-59
2023/10/11 01:35:42;;;;;;;5.97;1.50;;;;;;;15.59;69.70;99033.06;5050765;28;20189;-59
2023/10/11 01:38:08;;;;;;;3.08;2.00;;;;;;;15.59;69.63;99040.91;5050775;28;20269;-60
2023/10/11 01:40:33;;;;;;;3.25;2.03;;;;;;;15.44;69.42;99028.19;5050800;28;20199;-59
2023/10/11 01:43:00;;;;;;;2.53;1.98;;;;;;;15.47;69.54;99043.63;5050709;28;20182;-59
2023/10/11 01:45:25;;;;;;;3.13;1.33;;;;;;;15.09;69.60;99011.84;5050639;28;20587;-59
2023/10/11 01:47:51;;;;;;;4.82;1.70;;;;;;;15.26;69.68;99040.88;5050558;28;20182;-59
2023/10/11 01:50:20;;;;;;;2.40;1.63;;;;;;;15.32;69.28;99022.19;5050520;28;20200;-59
2023/10/11 01:52:48;;;;;;;3.03;1.52;;;;;;;15.37;68.56;99035.69;5050440;28;20251;-59
2023/10/11 01:55:15;;;;;;;6.63;1.73;;;;;;;15.45;68.48;99045.53;5050401;28;20181;-59
2023/10/11 01:57:50;;;;;;;5.00;1.88;;;;;;;15.60;67.84;99063.41;5050370;28;20270;-59
2023/10/11 02:00:20;;;;;;;4.00;1.52;;;;;;;15.86;67.45;99088.28;5050372;28;20184;-59
2023/10/11 02:02:58;;;;;;;2.83;1.60;;;;;;;15.82;66.90;99092.09;5107461;28;20207;-59
2023/10/11 02:05:24;;;;;;;7.97;1.85;;;;;;;15.55;67.09;99055.13;5113431;28;20709;-59
2023/10/11 02:07:50;;;;;;;5.38;1.92;;;;;;;15.70;66.99;99076.56;5113270;28;20447;-59
2023/10/11 02:10:26;;;;;;;4.38;1.63;;;;;;;15.64;67.04;99066.63;5113437;28;20183;-59
2023/10/11 02:12:55;;;;;;;8.25;1.55;;;;;;;15.69;66.19;99101.00;5112974;28;20183;-59
2023/10/11 02:15:21;;;;;;;6.18;1.70;;;;;;;15.70;65.91;99081.78;5113111;28;20178;-59
2023/10/11 02:17:54;;;;;;;7.07;1.70;;;;;;;15.82;65.18;99091.25;5113248;28;20544;-59
2023/10/11 02:20:22;;;;;;;3.10;1.90;;;;;;;15.91;65.39;99103.59;5112997;28;20179;-59
2023/10/11 02:22:55;;;;;;;1.95;1.40;;;;;;;15.80;65.41;99082.72;5113147;28;20232;-59
2023/10/11 02:25:24;;;;;;;9.10;1.92;;;;;;;15.89;65.80;99110.69;5112973;28;20193;-59
2023/10/11 02:27:51;;;;;;;6.55;1.90;;;;;;;15.70;65.67;99074.81;5112809;28;20262;-59
2023/10/11 02:30:21;;;;;;;9.57;1.70;;;;;;;15.97;65.22;99116.16;5112803;28;20554;-59
2023/10/11 02:32:52;;;;;;;6.38;1.70;;;;;;;15.66;65.55;99109.06;5112309;28;20538;-59
2023/10/11 02:35:19;;;;;;;8.35;1.98;;;;;;;15.48;65.73;99105.28;5112607;28;20182;-59
2023/10/11 02:37:48;;;;;;;4.68;1.50;;;;;;;15.41;65.66;99098.88;5112435;28;20207;-59
2023/10/11 02:40:22;;;;;;;7.25;1.75;;;;;;;15.38;65.67;99102.53;5112857;28;20183;-59
2023/10/11 02:42:56;;;;;;;2.60;1.52;;;;;;;15.71;65.27;99130.41;5112510;28;20175;-59
2023/10/11 02:45:24;;;;;;;6.03;1.65;;;;;;;15.60;65.15;99130.41;5112473;28;20207;-59
2023/10/11 02:47:59;;;;;;;4.50;1.45;;;;;;;15.59;65.14;99132.19;5112329;28;20248;-59
2023/10/11 02:50:36;;;;;;;3.22;1.70;;;;;;;15.45;65.05;99113.34;5112692;28;20266;-59
2023/10/11 02:53:05;;;;;;;2.53;1.48;;;;;;;15.52;64.45;99104.09;5112355;28;20175;-59
2023/10/11 02:55:30;;;;;;;2.88;1.73;;;;;;;15.75;64.17;99142.28;5111737;28;20236;-59
2023/10/11 02:58:08;;;;;;;3.22;1.70;;;;;;;15.67;63.83;99123.75;5111880;28;20203;-59
2023/10/11 03:00:35;;;;;;;5.88;1.58;;;;;;;15.74;63.49;99135.41;5112316;28;20175;-60
2023/10/11 03:03:01;;;;;;;2.38;1.42;;;;;;;15.64;63.56;99130.03;5111953;28;20175;-59
2023/10/11 03:05:27;;;;;;;3.13;1.85;;;;;;;15.72;62.71;99137.28;5112096;28;20190;-59
2023/10/11 03:08:21;;;;;;;5.32;1.80;;;;;;;15.62;63.17;99133.75;5112065;28;20319;-59
2023/10/11 03:10:56;;;;;;;4.55;1.65;;;;;;;15.51;63.09;99112.88;5112090;28;20270;-59
2023/10/11 03:13:29;;;;;;;5.75;1.60;;;;;;;15.42;63.59;99103.97;5111967;28;20189;-59
2023/10/11 03:15:55;;;;;;;6.63;1.58;;;;;;;15.45;62.75;99108.94;5111830;28;20200;-59
2023/10/11 03:18:32;;;;;;;4.38;1.33;;;;;;;15.70;62.63;99149.63;5111825;28;20163;-59
2023/10/11 03:21:08;;;;;;;2.92;1.50;;;;;;;15.73;62.41;99151.97;5111947;28;20637;-59
2023/10/11 03:23:47;;;;;;;3.50;1.65;;;;;;;15.72;62.36;99147.72;5088874;28;20630;-59
2023/10/11 03:26:22;;;;;;;3.47;1.70;;;;;;;15.69;62.61;99161.00;5088900;28;20194;-59
2023/10/11 03:28:58;;;;;;;2.95;1.65;;;;;;;15.65;62.48;99150.00;5088828;28;20670;-59
2023/10/11 03:31:34;;;;;;;3.17;1.50;;;;;;;15.56;62.09;99122.00;5088916;28;20244;-59
2023/10/11 03:34:14;;;;;;;9.15;1.98;;;;;;;15.77;61.97;99158.63;5048258;28;20196;-59
2023/10/11 03:36:49;;;;;;;4.53;1.65;;;;;;;15.67;62.38;99155.91;5048522;28;20213;-59
2023/10/11 03:39:39;;;;;;;2.60;2.00;;;;;;;15.57;61.98;99138.47;5048436;28;20199;-59
2023/10/11 03:42:17;;;;;;;4.85;1.60;;;;;;;15.52;61.29;99119.75;5048506;28;20666;-59
2023/10/11 03:44:46;;;;;;;1.70;1.60;;;;;;;15.74;60.64;99164.09;5048451;28;20192;-59
2023/10/11 03:47:22;;;;;;;6.03;1.85;;;;;;;15.66;61.50;99161.25;5048340;28;20194;-59
2023/10/11 03:49:51;;;;;;;1.80;1.50;;;;;;;15.49;61.41;99140.84;5047541;28;20195;-59
2023/10/11 03:52:22;;;;;;;2.53;1.38;;;;;;;15.38;61.27;99133.00;5048289;28;20181;-59
2023/10/11 03:54:53;;;;;;;5.22;1.73;;;;;;;15.31;61.05;99130.00;5060095;28;20640;-59
2023/10/11 03:57:18;;;;;;;4.30;1.52;;;;;;;15.44;61.68;99149.03;5068187;28;20297;-59
2023/10/11 03:59:48;;;;;;;5.88;1.70;;;;;;;15.31;61.34;99131.78;5068281;28;20185;-59
2023/10/11 04:02:17;;;;;;;6.18;1.50;;;;;;;15.25;62.00;99140.06;5068161;28;20208;-59
2023/10/11 04:04:48;;;;;;;6.03;1.55;;;;;;;14.68;64.05;99107.94;5084609;28;20187;-59
2023/10/11 04:07:14;;;;;;;2.30;1.77;;;;;;;14.72;65.13;99148.44;5111702;28;20194;-59
2023/10/11 04:09:40;;;;;;;5.35;1.98;;;;;;;14.54;65.47;99135.03;5115465;28;20197;-59
2023/10/11 04:12:10;;;;;;;6.45;2.40;;;;;;;14.61;66.06;99151.84;5115454;28;20203;-59
2023/10/11 04:14:41;;;;;;;5.45;1.60;;;;;;;14.70;65.97;99158.16;5115475;28;20199;-58
2023/10/11 04:17:13;;;;;;;2.55;1.40;;;;;;;14.38;67.91;99152.69;5115532;28;20199;-59
2023/10/11 04:19:41;;;;;;;3.15;1.30;;;;;;;14.57;66.84;99153.00;5115368;28;20594;-59
2023/10/11 04:22:12;;;;;;;1.83;1.50;;;;;;;14.43;67.57;99136.72;5115207;28;20221;-60
2023/10/11 04:24:41;;;;;;;3.85;1.90;;;;;;;14.55;67.17;99135.84;5115232;28;20179;-60
2023/10/11 04:29:51;;;;;;;5.90;1.80;;;;;;;14.87;66.29;99148.16;5115224;28;20180;-58
2023/10/11 04:35:18;;;;;;;4.32;1.90;;;;;;;14.63;66.75;99117.88;5115060;28;20564;-58
2023/10/11 04:37:48;;;;;;;3.53;1.70;;;;;;;14.83;66.67;99125.06;5114943;28;20211;-58
2023/10/11 04:40:23;;;;;;;3.33;1.80;;;;;;;14.89;67.43;99174.94;5114836;28;20195;-58
2023/10/11 04:43:04;;;;;;;4.00;2.03;;;;;;;14.83;67.26;99166.75;5114847;28;20546;-58
2023/10/11 04:45:44;;;;;;;6.20;1.45;;;;;;;14.92;66.78;99156.47;5114846;28;20175;-58
2023/10/11 04:48:18;;;;;;;3.35;1.40;;;;;;;15.25;65.05;99181.78;5115074;28;20325;-58
2023/10/11 04:50:49;;;;;;;3.65;1.40;;;;;;;15.29;65.54;99172.78;5114712;28;20708;-58
2023/10/11 04:53:18;;;;;;;5.25;2.10;;;;;;;14.85;66.59;99137.03;5114779;28;20263;-58
2023/10/11 04:55:58;;;;;;;2.35;1.75;;;;;;;14.99;67.10;99143.81;5114644;28;20656;-59
2023/10/11 05:01:10;;;;;;;3.13;1.70;;;;;;;14.98;68.02;99157.81;5114694;28;20521;-58
2023/10/11 05:03:38;;;;;;;7.65;1.52;;;;;;;14.94;67.20;99153.75;5114584;28;20215;-59
2023/10/11 05:06:13;;;;;;;2.90;1.48;;;;;;;14.92;67.53;99150.44;5114444;28;20710;-59
2023/10/11 05:08:54;;;;;;;6.32;2.25;;;;;;;15.05;66.93;99179.84;5114479;28;20183;-59
2023/10/11 05:14:30;;;;;;;4.20;2.50;;;;;;;14.92;65.70;99161.69;5031081;28;20343;-59
2023/10/11 05:16:59;;;;;;;6.70;2.28;;;;;;;15.04;64.65;99197.25;5031322;28;20562;-59
2023/10/11 05:19:28;;;;;;;8.90;2.05;;;;;;;14.95;64.82;99173.66;5030891;28;20650;-59
2023/10/11 05:21:55;;;;;;;3.35;1.55;;;;;;;15.09;63.81;99178.66;5031287;28;20190;-59
2023/10/11 05:24:33;;;;;;;3.05;1.90;;;;;;;15.15;63.57;99189.47;5031149;28;20208;-59
2023/10/11 05:32:32;;;;;;;4.07;2.40;;;;;;;15.29;62.74;99225.75;5031108;28;20201;-59
2023/10/11 05:51:26;;;;;;;4.97;2.20;;;;;;;15.07;61.67;99241.34;5030361;28;20675;-60
2023/10/11 05:54:03;;;;;;;7.07;2.55;;;;;;;14.91;61.31;99226.94;5050444;28;20279;-59
2023/10/11 05:56:33;;;;;;;1.77;1.35;;;;;;;14.93;61.47;99225.06;5050672;28;20335;-59
2023/10/11 05:59:11;;;;;;;3.33;1.58;;;;;;;15.29;60.32;99275.31;5050572;28;20325;-59
2023/10/11 06:01:37;;;;;;;5.63;1.65;;;;;;;15.33;60.30;99270.75;5050924;28;20199;-59
2023/10/11 06:04:03;;;;;;;4.28;1.80;;;;;;;15.41;61.65;99268.41;5050367;28;20687;-59
2023/10/11 06:06:38;;;;;;;3.60;1.17;;;;;;;15.16;61.78;99243.25;5050255;28;20190;-59
2023/10/11 06:09:05;;;;;;;1.80;1.50;;;;;;;15.17;61.16;99242.31;5050469;28;20202;-59
2023/10/11 06:11:36;;;;;;;3.10;1.40;;;;;;;15.40;60.62;99269.34;4990825;28;20179;-59
2023/10/11 06:14:12;;;;;;;4.18;1.70;;;;;;;15.26;63.53;99259.91;4990861;28;20207;-59
2023/10/11 06:16:38;;;;;;;3.85;1.30;;;;;;;15.34;63.88;99248.94;4998526;28;20221;-59
2023/10/11 06:19:18;;;;;;;3.55;1.55;;;;;;;15.58;63.54;99273.19;5030480;28;20186;-59
2023/10/11 06:21:58;;;;;;;6.57;1.77;;;;;;;15.44;63.66;99236.84;5030203;28;20514;-59
2023/10/11 06:24:25;;;;;;;5.28;1.85;;;;;;;15.63;62.37;99268.47;5030200;28;20182;-59
2023/10/11 06:26:56;;;;;;;6.95;2.08;;;;;;;15.77;62.70;99261.25;5030086;28;20194;-59
2023/10/11 06:29:26;;;;;;;3.88;1.73;;;;;;;15.79;60.75;99268.94;5029722;28;20262;-59
2023/10/11 06:31:53;;;;;;;2.90;1.50;;;;;;;15.74;60.92;99274.50;5029394;28;20194;-59
2023/10/11 06:36:51;;;;;;;1.88;1.40;;;;;;;15.91;59.23;99245.34;5029790;28;20245;-59
2023/10/11 06:42:14;;;;;;;3.33;1.70;;;;;;;15.91;59.52;99252.38;5048845;28;20188;-59
2023/10/11 06:44:51;;;;;;;4.20;1.50;;;;;;;16.17;58.70;99300.78;5108189;28;20190;-59
2023/10/11 06:47:18;;;;;;;5.57;1.92;;;;;;;15.91;61.94;99287.13;5112698;28;20221;-60
2023/10/11 06:49:47;;;;;;;5.25;1.48;;;;;;;15.72;61.47;99245.09;5112611;28;20266;-60
2023/10/11 06:52:17;;;;;;;4.53;1.92;;;;;;;15.81;60.10;99264.47;5112563;28;20163;-60
2023/10/11 06:54:47;;;;;;;5.50;2.20;;;;;;;15.57;60.84;99258.47;5112618;28;20247;-60
2023/10/11 06:57:21;;;;;;;4.50;1.60;;;;;;;15.56;61.04;99242.00;5112630;28;20206;-60
2023/10/11 06:59:51;;;;;;;5.75;2.08;;;;;;;15.61;61.76;99254.69;5112148;28;20602;-60
2023/10/11 07:02:31;;;;;;;2.75;1.85;;;;;;;15.56;60.66;99251.63;5111942;28;20639;-60
2023/10/11 07:05:07;;;;;;;4.32;1.63;;;;;;;15.68;64.06;99295.03;5111011;28;20190;-60
2023/10/11 07:07:33;;;;;;;6.38;1.90;;;;;;;15.75;63.11;99283.19;5112315;28;20175;-60
2023/10/11 07:10:01;;;;;;;2.42;1.80;;;;;;;15.65;62.86;99254.34;5112195;28;20266;-60
2023/10/11 07:12:39;;;;;;;4.35;1.75;;;;;;;15.84;61.89;99258.97;5112129;28;20176;-58
2023/10/11 07:15:07;;;;;;;3.90;1.98;;;;;;;16.26;61.83;99303.53;5112066;28;20248;-58
2023/10/11 07:17:33;;;;;;;6.72;2.53;;;;;;;16.20;61.07;99269.22;5112064;28;20282;-58
2023/10/11 07:20:00;;;;;;;9.05;2.75;;;;;;;16.23;59.34;99268.97;5112032;28;20198;-58
2023/10/11 07:22:34;;;;;;;3.70;1.98;;;;;;;16.23;60.32;99302.94;5111956;28;20186;-58
2023/10/11 07:25:18;;;;;;;8.38;2.28;;;;;;;16.24;60.04;99281.09;5111675;28;20266;-58
2023/10/11 07:27:44;;;;;;;4.18;1.90;;;;;;;16.41;59.62;99305.00;5112067;28;20224;-59
2023/10/11 07:30:16;;;;;;;6.50;2.30;;;;;;;16.41;59.15;99307.59;5111847;28;20179;-60
2023/10/11 07:32:45;;;;;;;4.45;2.47;;;;;;;16.26;59.65;99271.38;5111753;28;20179;-60
2023/10/11 07:35:19;;;;;;;7.25;2.60;;;;;;;16.44;59.71;99306.53;5111717;28;20178;-60
2023/10/11 07:37:44;;;;;;;8.95;2.88;;;;;;;16.43;59.00;99305.69;5111575;28;20195;-60
2023/10/11 07:40:18;;;;;;;2.75;2.22;;;;;;;15.90;60.06;99266.34;5111334;28;20224;-60
2023/10/11 07:42:44;;;;;;;5.18;2.20;;;;;;;16.12;60.33;99313.38;5111411;28;20179;-60
2023/10/11 07:45:13;;;;;;;7.13;2.38;;;;;;;16.32;60.17;99316.09;5088592;28;20541;-60
2023/10/11 07:47:51;;;;;;;9.13;2.60;;;;;;;16.34;60.47;99293.34;5088674;28;20209;-60
2023/10/11 07:50:22;;;;;;;4.90;2.03;;;;;;;16.45;62.19;99300.34;5088766;28;20198;-60
2023/10/11 07:52:48;;;;;;;10.88;2.83;;;;;;;16.42;59.37;99295.34;5088947;28;20266;-59
2023/10/11 07:55:13;;;;;;;5.75;2.42;;;;;;;16.57;59.62;99310.66;5088421;28;20286;-58
2023/10/11 07:57:44;;;;;;;5.10;2.30;;;;;;;16.60;59.22;99304.34;5034778;28;20262;-58
2023/10/11 08:00:18;;;;;;;14.10;2.95;;;;;;;16.71;60.19;99314.78;5068284;28;20249;-59
2023/10/11 08:03:02;;;;;;;10.85;2.38;;;;;;;16.70;59.37;99315.75;5028299;28;20182;-59
2023/10/11 08:05:30;;;;;;;3.78;2.60;;;;;;;16.76;59.50;99310.03;5028445;28;20668;-59
2023/10/11 08:07:56;;;;;;;14.02;3.00;;;;;;;16.75;60.34;99319.69;5028292;28;20243;-59
2023/10/11 08:10:33;;;;;;;4.30;2.35;;;;;;;16.76;59.93;99289.13;5028573;28;20202;-59
2023/10/11 08:13:14;;;;;;;5.13;2.55;;;;;;;16.83;58.84;99292.91;5028040;28;20276;-59
2023/10/11 08:15:39;;;;;;;7.53;2.63;;;;;;;16.58;58.85;99298.44;5034264;28;20201;-59
2023/10/11 08:18:05;;;;;;;7.32;3.38;;;;;;;16.83;59.41;99334.75;5048123;28;20215;-60
2023/10/11 08:20:30;;;;;;;9.40;2.72;;;;;;;16.62;59.51;99318.16;5048245;28;20177;-59
2023/10/11 08:22:57;;;;;;;4.68;2.90;;;;;;;16.66;59.32;99322.16;5048385;28;20271;-59
2023/10/11 08:25:27;;;;;;;8.40;2.97;;;;;;;16.57;59.18;99309.84;5048215;28;20181;-60
2023/10/11 08:28:10;;;;;;;6.28;2.80;;;;;;;16.65;58.75;99317.91;5051957;28;20189;-59
2023/10/11 08:30:37;;;;;;;14.48;3.45;;;;;;;16.64;58.95;99339.75;5068199;28;20263;-59
2023/10/11 08:33:04;;;;;;;8.20;3.53;;;;;;;16.50;59.32;99311.28;5077576;28;20191;-59
2023/10/11 08:35:32;;;;;;;5.80;3.65;;;;;;;16.35;59.23;99296.75;5110976;28;20185;-59
2023/10/11 08:38:04;;;;;;;9.43;3.72;;;;;;;16.58;59.11;99303.66;5110999;28;20238;-59
2023/10/11 08:40:35;;;;;;;6.53;3.10;;;;;;;16.99;58.00;99341.25;5111081;28;20179;-59
2023/10/11 08:43:01;;;;;;;5.15;2.90;;;;;;;17.02;58.34;99338.38;5111134;28;20167;-59
2023/10/11 08:45:29;;;;;;;5.65;3.47;;;;;;;17.13;58.10;99343.59;5111014;28;20198;-59
2023/10/11 08:47:54;;;;;;;5.40;2.75;;;;;;;16.93;58.72;99327.84;5110889;28;20249;-59
2023/10/11 08:50:21;;;;;;;10.00;3.47;;;;;;;16.86;59.46;99309.19;5110981;28;20187;-59
2023/10/11 08:52:46;;;;;;;10.00;3.05;;;;;;;16.99;58.38;99303.81;5110969;28;20706;-59
2023/10/11 08:55:12;;;;;;;7.03;2.67;;;;;;;17.26;58.15;99320.72;5114581;28;20257;-59
2023/10/11 08:57:38;;;;;;;5.97;2.92;;;;;;;17.53;57.32;99343.81;5114795;28;20199;-59
2023/10/11 09:00:17;;;;;;;8.82;2.88;;;;;;;17.59;57.33;99330.25;5114634;28;20183;-59
2023/10/11 09:02:48;;;;;;;7.80;3.15;;;;;;;17.61;56.43;99317.88;5114758;28;20239;-59
2023/10/11 09:05:29;;;;;;;7.75;2.30;;;;;;;17.54;57.08;99327.19;5114593;28;20175;-60
2023/10/11 09:07:55;;;;;;;5.63;2.40;;;;;;;17.65;57.77;99316.66;5114619;28;20258;-59
2023/10/11 09:10:23;;;;;;;10.68;3.08;;;;;;;17.68;56.70;99327.72;5114959;28;20680;-59
2023/10/11 09:12:49;;;;;;;9.30;2.22;;;;;;;17.58;56.98;99305.03;5114285;28;20253;-59
2023/10/11 09:15:16;;;;;;;5.55;3.10;;;;;;;17.98;57.49;99333.00;5114751;28;20175;-59
2023/10/11 09:17:41;;;;;;;7.97;2.30;;;;;;;18.16;55.91;99328.00;5071035;28;20208;-59
2023/10/11 09:20:23;;;;;;;5.50;2.78;;;;;;;18.16;56.31;99328.00;5071085;28;20188;-59
2023/10/11 09:22:52;;;;;;;5.32;2.70;;;;;;;17.96;57.19;99352.44;5070970;28;20188;-59
2023/10/11 09:25:21;;;;;;;18.67;3.10;;;;;;;18.02;56.94;99310.00;5070961;28;20187;-60
2023/10/11 09:27:50;;;;;;;5.07;2.53;;;;;;;18.25;56.79;99328.03;5070834;28;20181;-59
2023/10/11 09:30:20;;;;;;;7.05;2.72;;;;;;;18.35;55.66;99334.19;5070955;28;20268;-59
2023/10/11 09:32:51;;;;;;;8.20;3.13;;;;;;;18.46;55.58;99313.16;5070871;28;20180;-59
2023/10/11 09:35:26;;;;;;;7.25;2.90;;;;;;;18.92;54.97;99354.53;5070723;28;20228;-60
2023/10/11 09:37:54;;;;;;;10.10;3.20;;;;;;;18.96;55.05;99345.44;5070545;28;20208;-59
2023/10/11 09:40:27;;;;;;;8.57;2.92;;;;;;;19.01;54.56;99338.81;5070686;28;20595;-59
2023/10/11 09:42:56;;;;;;;9.25;3.30;;;;;;;18.84;54.31;99321.09;5070664;28;20191;-60
2023/10/11 09:45:28;;;;;;;6.10;2.88;;;;;;;18.82;54.76;99301.25;5070737;28;20177;-60
2023/10/11 09:47:55;;;;;;;14.15;3.25;;;;;;;18.88;54.50;99311.22;5070718;28;20577;-59
2023/10/11 09:50:24;;;;;;;10.40;3.38;;;;;;;19.12;54.39;99338.72;5070572;28;20184;-59
2023/10/11 09:52:53;;;;;;;5.28;3.13;;;;;;;19.16;54.44;99321.72;5070391;28;20176;-59
2023/10/11 09:55:31;;;;;;;13.40;2.90;;;;;;;19.28;53.82;99319.81;5095472;28;20198;-59
2023/10/11 09:58:11;;;;;;;6.93;2.70;;;;;;;19.26;53.08;99317.38;5113507;28;20287;-59
2023/10/11 10:01:08;;;;;;;8.02;2.50;;;;;;;19.59;51.99;99337.13;5113383;28;20652;-59
2023/10/11 10:03:38;;;;;;;10.85;2.95;;;;;;;19.66;52.74;99319.84;5113392;28;20175;-59
2023/10/11 10:06:08;;;;;;;8.00;2.60;;;;;;;19.80;52.34;99312.34;5112242;28;20653;-59
2023/10/11 10:08:33;;;;;;;5.78;2.05;;;;;;;19.80;51.92;99277.38;5113139;28;20655;-59
2023/10/11 10:11:02;;;;;;;8.20;2.38;;;;;;;19.94;51.13;99284.81;5113298;28;20268;-59
2023/10/11 10:13:28;;;;;;;7.70;3.13;;;;;;;19.99;50.89;99285.22;5113067;28;20225;-59
2023/10/11 10:15:57;;;;;;;8.20;2.78;;;;;;;20.16;50.82;99316.88;5112931;28;20696;-59
2023/10/11 10:18:23;;;;;;;4.15;2.67;;;;;;;20.12;51.49;99312.84;5113095;28;20175;-59
2023/10/11 10:21:04;;;;;;;4.47;2.60;;;;;;;20.04;52.22;99272.50;5049703;28;20620;-59
2023/10/11 10:23:38;;;;;;;6.60;3.05;;;;;;;20.05;51.28;99280.22;5050092;28;20181;-59
2023/10/11 10:26:05;;;;;;;9.40;3.67;;;;;;;20.39;51.25;99291.06;5049863;28;20616;-59
2023/10/11 10:28:37;;;;;;;7.22;2.70;;;;;;;20.59;50.53;99290.00;5049928;28;20178;-59
2023/10/11 10:31:11;;;;;;;6.00;2.83;;;;;;;20.62;50.81;99293.16;5049711;28;20238;-59
2023/10/11 10:33:41;;;;;;;5.70;2.67;;;;;;;20.82;50.36;99293.88;5049711;28;20239;-59
2023/10/11 10:36:31;;;;;;;5.93;2.70;;;;;;;21.04;49.54;99286.41;5049482;28;20216;-59
2023/10/11 10:41:41;;;;;;;6.35;3.30;;;;;;;20.59;51.16;99237.41;5009952;28;20186;-59
2023/10/11 10:44:16;;;;;;;6.72;3.40;;;;;;;20.71;51.08;99250.19;5009773;28;20218;-59
2023/10/11 10:46:53;;;;;;;6.63;3.35;;;;;;;21.00;50.83;99273.72;5009848;28;20232;-59
2023/10/11 10:49:23;;;;;;;5.90;3.33;;;;;;;20.89;50.93;99247.59;5009765;28;20743;-59
2023/10/11 10:51:48;;;;;;;3.15;2.85;;;;;;;21.05;50.26;99222.25;5039408;28;20237;-59
2023/10/11 10:54:17;;;;;;;2.95;2.67;;;;;;;21.41;49.70;99246.75;5069185;28;20196;-59
2023/10/11 10:56:46;;;;;;;9.45;3.40;;;;;;;21.65;49.05;99254.84;5069159;28;20344;-59
2023/10/11 10:59:20;;;;;;;2.83;2.50;;;;;;;21.59;49.04;99222.06;5069110;28;20547;-59
2023/10/11 11:01:48;;;;;;;6.32;3.28;;;;;;;21.76;48.53;99220.38;5069199;28;20184;-59
2023/10/11 11:04:15;;;;;;;3.55;2.80;;;;;;;21.93;47.64;99220.34;5069043;28;20180;-59
2023/10/11 11:06:44;;;;;;;8.23;3.25;;;;;;;21.95;47.15;99217.53;5069075;28;20189;-59
2023/10/11 11:09:15;;;;;;;3.70;2.70;;;;;;;22.00;47.36;99218.72;5071605;28;20294;-59
2023/10/11 11:11:45;;;;;;;2.90;2.60;;;;;;;22.01;47.16;99256.44;5111995;28;20185;-59
2023/10/11 11:14:15;;;;;;;6.38;2.70;;;;;;;22.06;47.98;99243.59;5112097;28;20198;-59
2023/10/11 11:16:44;;;;;;;5.13;2.88;;;;;;;21.98;47.84;99247.03;5111238;28;20585;-59
2023/10/11 11:19:16;;;;;;;7.57;3.17;;;;;;;21.90;47.60;99225.06;5112025;28;20171;-59
2023/10/11 11:21:46;;;;;;;4.38;2.63;;;;;;;22.02;47.17;99226.47;5111917;28;20179;-59
2023/10/11 11:24:27;;;;;;;3.53;2.38;;;;;;;22.03;47.96;99221.03;5111891;28;20217;-59
2023/10/11 11:26:54;;;;;;;6.97;2.53;;;;;;;22.06;47.58;99240.97;5111910;28;20556;-59
2023/10/11 11:29:32;;;;;;;6.70;2.88;;;;;;;22.16;47.59;99241.69;5111784;28;20250;-59
2023/10/11 11:32:14;;;;;;;3.97;2.60;;;;;;;22.23;47.44;99213.69;5111549;28;20175;-58
2023/10/11 11:35:00;;;;;;;2.40;2.20;;;;;;;22.18;47.39;99232.66;5111745;28;20298;-59
2023/10/11 11:37:29;;;;;;;5.72;2.55;;;;;;;22.19;47.25;99204.44;5068302;28;20220;-58
2023/10/11 11:40:17;;;;;;;5.20;2.47;;;;;;;22.33;46.49;99195.94;5068485;28;20246;-58
2023/10/11 11:42:47;;;;;;;3.83;2.53;;;;;;;22.61;46.52;99229.06;5068314;28;20192;-59
2023/10/11 11:45:14;;;;;;;7.53;2.75;;;;;;;22.51;46.30;99201.97;5068823;28;20627;-60
2023/10/11 11:47:50;;;;;;;4.75;2.60;;;;;;;22.50;45.87;99192.41;5068374;28;20192;-60
2023/10/11 11:50:18;;;;;;;5.95;2.60;;;;;;;22.70;45.98;99218.34;5068519;28;20550;-59
2023/10/11 11:52:43;;;;;;;3.78;2.25;;;;;;;22.80;46.08;99221.69;5068466;28;20652;-59
2023/10/11 11:55:09;;;;;;;5.25;2.28;;;;;;;22.82;45.57;99217.06;5068314;28;20172;-58
2023/10/11 11:57:35;;;;;;;10.10;2.67;;;;;;;22.87;45.53;99208.63;5068088;28;20238;-59
2023/10/11 12:00:19;;;;;;;7.72;2.53;;;;;;;23.02;45.48;99217.59;5068146;28;20671;-59
2023/10/11 12:02:45;;;;;;;3.22;2.35;;;;;;;23.05;44.84;99196.13;5068217;28;20589;-59
2023/10/11 12:05:11;;;;;;;9.75;2.45;;;;;;;23.24;44.61;99219.63;5068144;28;20180;-59
2023/10/11 12:07:36;;;;;;;2.67;2.17;;;;;;;23.16;43.96;99215.13;5075247;28;20287;-59
2023/10/11 12:10:02;;;;;;;5.18;2.33;;;;;;;23.02;44.96;99222.88;5111352;28;20163;-59
2023/10/11 12:12:27;;;;;;;6.60;2.22;;;;;;;22.69;45.57;99194.75;5111040;28;20227;-59
2023/10/11 12:14:53;;;;;;;2.40;2.25;;;;;;;22.62;45.40;99193.75;5087915;28;20654;-59
2023/10/11 12:17:18;;;;;;;2.92;2.08;;;;;;;22.58;45.56;99193.25;5088148;28;20769;-59
2023/10/11 12:19:44;;;;;;;4.43;2.25;;;;;;;22.54;45.64;99209.53;5088352;28;20180;-60
2023/10/11 12:22:13;;;;;;;6.53;1.90;;;;;;;22.39;46.22;99192.69;5088194;28;20237;-59
2023/10/11 12:24:45;;;;;;;3.22;2.20;;;;;;;22.37;46.06;99189.38;5088162;28;20192;-60
2023/10/11 12:27:11;;;;;;;2.13;1.95;;;;;;;22.30;46.67;99173.38;5088280;28;20180;-60
2023/10/11 12:29:38;;;;;;;4.07;2.90;;;;;;;22.33;45.62;99169.56;5090960;28;20184;-60
2023/10/11 12:32:04;;;;;;;4.45;2.10;;;;;;;22.07;45.99;99184.63;5051790;28;20652;-60